Portada
METAR-TAF:

METAR-TAF

Aeroports :

Odiham, Anglaterra

latitud: 51-14N, longitud: 000-57W, altitud: 123 m

Observació

L'informe es va fer fa 42 minuts, a les 20:20 UTC
Vent 6 kt del Sud/Sud-Oest
Temperatura 17°C
Humitat 77%
Pressió 1018 hPa
Visibilitat 10 km o més
sense núvols per sota de 1500 mi sense presència de cumulonimbus.

METAR: EGVO 162020Z 20006KT CAVOK 17/13 Q1018 NOSIG RMK BLU BLU

Hora: 22:02 (21:02 UTC)

Pronòstic

L'informe es va fer fa 1 hora i 28 minuts, a les 19:34 UTC
Pronòstic vàlid del 16 a les 21 UTC al 17 a les 09 UTC
Vent 5 kt del Sud-Oest
Visibilitat 10 km o més
sense núvols per sota de 1500 mi sense presència de cumulonimbus.
Probabilitat 40%
l' 17 a les 02 UTC al 17 a les 06 UTC
Visibilitat: 6000 m
calitja

TAF: EGVO 161934Z 1621/1709 22005KT CAVOK PROB40 1702/1706 6000 HZ

Observacions i pronòstics meteorològics de més de 4000 aeroports (METAR i TAF).

Les estacions disponibles són els punts grocs i vermells al mapa.

Posi el ratolí al punt desitjat per veure el nom de l'estació.

Feu clic per veure les observacions i els pronòstics meteorològics.

Per canviar el mapa: feu clic els botons verds amb una creu de color negre per apropar; al botó verd amb un guió per allunyar la imatge; o en les fletxes verdes per a mapes adjacents.


METAR-TAF: